createdAt,value
2022-12-26T00:00:48.896Z,12.23
2022-12-26T00:03:15.836Z,11.87
2022-12-26T00:05:42.717Z,12.00
2022-12-26T00:08:09.612Z,11.80
2022-12-26T00:10:36.376Z,11.90
2022-12-26T00:13:39.696Z,11.90
2022-12-26T00:15:50.445Z,11.97
2022-12-26T00:18:17.612Z,12.07
2022-12-26T00:20:44.427Z,12.27
2022-12-26T00:23:11.236Z,11.53
2022-12-26T00:25:38.095Z,11.77
2022-12-26T00:28:05.022Z,11.87
2022-12-26T00:30:31.975Z,11.80
2022-12-26T00:32:58.763Z,12.93
2022-12-26T00:35:25.591Z,12.27
2022-12-26T00:37:52.369Z,12.90
2022-12-26T00:40:19.227Z,12.83
2022-12-26T00:42:46.060Z,12.73
2022-12-26T00:45:12.886Z,11.77
2022-12-26T00:47:39.641Z,12.67
2022-12-26T00:50:13.255Z,12.20
2022-12-26T00:52:43.055Z,12.23
2022-12-26T00:55:10.229Z,12.33
2022-12-26T00:57:37.059Z,12.83
2022-12-26T01:00:05.416Z,12.87
2022-12-26T01:02:38.190Z,12.53
2022-12-26T01:05:09.139Z,12.80
2022-12-26T01:08:21.492Z,12.70
2022-12-26T01:10:24.357Z,12.47
2022-12-26T01:12:51.353Z,12.60
2022-12-26T01:15:18.296Z,12.83
2022-12-26T01:17:46.611Z,12.70
2022-12-26T01:20:15.147Z,12.90
2022-12-26T01:22:42.037Z,12.70
2022-12-26T01:25:10.357Z,12.77
2022-12-26T01:27:37.613Z,12.83
2022-12-26T01:30:05.003Z,12.30
2022-12-26T01:32:31.757Z,12.50
2022-12-26T01:34:58.602Z,12.60
2022-12-26T01:37:25.527Z,12.90
2022-12-26T01:39:52.765Z,12.47
2022-12-26T01:42:22.906Z,12.60
2022-12-26T01:44:58.950Z,12.90
2022-12-26T01:47:42.338Z,12.50
2022-12-26T01:50:30.091Z,12.50
2022-12-26T01:53:00.503Z,12.60
2022-12-26T01:55:29.621Z,12.50
2022-12-26T01:58:06.189Z,12.53
2022-12-26T02:00:34.990Z,13.00
2022-12-26T02:03:20.538Z,13.00
2022-12-26T02:05:47.554Z,12.83
2022-12-26T02:08:24.021Z,13.03
2022-12-26T02:10:59.869Z,13.07
2022-12-26T02:13:28.669Z,12.87
2022-12-26T02:15:56.161Z,12.60
2022-12-26T02:18:23.543Z,12.60
2022-12-26T02:21:21.631Z,12.80
2022-12-26T02:24:11.715Z,12.57
2022-12-26T02:26:58.315Z,13.00
2022-12-26T02:30:02.607Z,12.93
2022-12-26T02:32:35.106Z,13.00
2022-12-26T02:35:34.184Z,12.47
2022-12-26T02:38:20.090Z,12.50
2022-12-26T02:41:23.845Z,12.90
2022-12-26T02:44:31.368Z,12.97
2022-12-26T02:47:33.567Z,12.87
2022-12-26T02:50:52.199Z,12.60
2022-12-26T02:54:07.699Z,13.13
2022-12-26T02:56:57.960Z,12.87
2022-12-26T03:00:08.585Z,12.63
2022-12-26T03:02:59.837Z,12.50
2022-12-26T03:05:59.916Z,13.43
2022-12-26T03:09:09.508Z,12.53
2022-12-26T03:12:08.911Z,13.40
2022-12-26T03:14:52.305Z,12.87
2022-12-26T03:17:44.890Z,13.77
2022-12-26T03:20:27.306Z,13.37
2022-12-26T03:23:05.868Z,13.30
2022-12-26T03:25:59.800Z,13.47
2022-12-26T03:28:27.553Z,13.60
2022-12-26T03:30:57.295Z,13.50
2022-12-26T03:33:45.978Z,12.90
2022-12-26T03:36:39.394Z,13.00
2022-12-26T03:39:46.331Z,13.00
2022-12-26T03:42:37.559Z,13.20
2022-12-26T03:45:41.289Z,13.10
2022-12-26T03:48:26.618Z,13.00
2022-12-26T03:51:28.315Z,13.30
2022-12-26T03:54:28.256Z,13.00
2022-12-26T03:57:25.298Z,13.13
2022-12-26T04:00:26.852Z,12.90
2022-12-26T04:03:17.765Z,13.00
2022-12-26T04:06:05.747Z,13.43
2022-12-26T04:09:21.247Z,13.17
2022-12-26T04:12:06.609Z,13.40
2022-12-26T04:14:54.792Z,13.17
2022-12-26T04:17:58.376Z,13.40
2022-12-26T04:20:48.410Z,13.40
2022-12-26T04:23:43.038Z,13.40
2022-12-26T04:26:46.708Z,13.53
2022-12-26T04:29:31.900Z,13.70
2022-12-26T04:32:20.051Z,13.83
2022-12-26T04:35:28.121Z,13.27
2022-12-26T04:38:15.532Z,13.60
2022-12-26T04:41:06.863Z,13.30
2022-12-26T04:43:53.821Z,13.80
2022-12-26T04:46:24.943Z,13.60
2022-12-26T04:49:12.496Z,14.03
2022-12-26T04:51:39.619Z,13.87
2022-12-26T04:54:06.809Z,13.97
2022-12-26T04:56:33.940Z,13.60
2022-12-26T04:59:01.004Z,13.57
2022-12-26T05:01:46.634Z,13.10
2022-12-26T05:04:34.011Z,13.57
2022-12-26T05:07:21.534Z,13.80
2022-12-26T05:09:54.660Z,13.63
2022-12-26T05:12:22.018Z,14.00
2022-12-26T05:14:48.796Z,13.83
2022-12-26T05:17:34.259Z,13.47
2022-12-26T05:20:19.546Z,13.63
2022-12-26T05:23:05.241Z,13.63
2022-12-26T05:25:56.156Z,14.17
2022-12-26T05:28:41.640Z,14.00
2022-12-26T05:31:17.433Z,13.63
2022-12-26T05:34:03.690Z,13.63
2022-12-26T05:36:39.590Z,13.90
2022-12-26T05:39:07.616Z,13.90
2022-12-26T05:41:35.357Z,13.87
2022-12-26T05:44:02.384Z,13.63
2022-12-26T05:46:29.298Z,13.90
2022-12-26T05:48:56.227Z,13.93
2022-12-26T05:51:23.183Z,13.70
2022-12-26T05:53:51.403Z,13.90
2022-12-26T05:56:19.066Z,14.47
2022-12-26T05:58:46.521Z,14.23
2022-12-26T06:01:18.784Z,14.17
2022-12-26T06:03:54.437Z,14.33
2022-12-26T06:06:22.983Z,14.17
2022-12-26T06:08:52.214Z,13.90
2022-12-26T06:11:20.145Z,14.10
2022-12-26T06:13:46.995Z,14.27
2022-12-26T06:16:15.914Z,14.13
2022-12-26T06:18:43.268Z,14.03
2022-12-26T06:21:12.432Z,14.20
2022-12-26T06:23:40.049Z,13.67
2022-12-26T06:26:09.088Z,13.80
2022-12-26T06:28:36.467Z,14.10
2022-12-26T06:31:15.248Z,14.00
2022-12-26T06:33:42.670Z,14.03
2022-12-26T06:36:14.721Z,14.00
2022-12-26T06:38:41.799Z,14.53
2022-12-26T06:41:10.825Z,14.47
2022-12-26T06:43:38.700Z,14.60
2022-12-26T06:46:06.870Z,14.17
2022-12-26T06:48:39.685Z,14.00
2022-12-26T06:51:14.684Z,13.90
2022-12-26T06:53:42.315Z,13.80
2022-12-26T06:56:11.530Z,14.13
2022-12-26T06:58:38.482Z,14.37
2022-12-26T07:01:06.507Z,14.30
2022-12-26T07:03:33.489Z,14.53
2022-12-26T07:06:34.038Z,14.43
2022-12-26T07:09:02.772Z,13.90
2022-12-26T07:11:32.980Z,14.10
2022-12-26T07:14:00.252Z,14.27
2022-12-26T07:16:27.256Z,14.67
2022-12-26T07:18:58.518Z,14.40
2022-12-26T07:21:26.208Z,14.70
2022-12-26T07:23:54.910Z,14.40
2022-12-26T07:26:22.636Z,14.30
2022-12-26T07:28:52.595Z,14.30
2022-12-26T07:31:20.492Z,14.53
2022-12-26T07:33:51.864Z,14.80
2022-12-26T07:36:19.933Z,14.13
2022-12-26T07:38:47.336Z,13.90
2022-12-26T07:41:33.736Z,14.17
2022-12-26T07:44:00.773Z,14.40
2022-12-26T07:46:27.810Z,14.43
2022-12-26T07:48:54.699Z,14.07
2022-12-26T07:51:21.687Z,14.10
2022-12-26T07:53:49.025Z,14.17
2022-12-26T07:56:16.336Z,13.70
2022-12-26T07:58:43.202Z,14.00
2022-12-26T08:01:10.322Z,14.30
2022-12-26T08:03:38.391Z,14.23
2022-12-26T08:06:05.383Z,14.10
2022-12-26T08:08:32.263Z,14.10
2022-12-26T08:11:01.052Z,13.83
2022-12-26T08:13:29.378Z,14.30
2022-12-26T08:15:57.207Z,14.30
2022-12-26T08:18:25.333Z,14.27
2022-12-26T08:20:52.412Z,14.13
2022-12-26T08:23:19.248Z,13.70
2022-12-26T08:25:46.057Z,13.20
2022-12-26T08:28:12.992Z,13.60
2022-12-26T08:30:44.237Z,13.67
2022-12-26T08:33:11.540Z,14.07
2022-12-26T08:35:40.082Z,13.33
2022-12-26T08:38:07.448Z,14.10
2022-12-26T08:40:43.106Z,13.83
2022-12-26T08:46:06.000Z,14.13
2022-12-26T08:48:33.203Z,14.50
2022-12-26T08:51:06.070Z,14.07
2022-12-26T08:53:35.820Z,13.97
2022-12-26T08:56:08.317Z,13.63
2022-12-26T08:58:35.617Z,13.57
2022-12-26T09:01:14.873Z,13.77
2022-12-26T09:03:42.359Z,14.10
2022-12-26T09:06:10.649Z,13.87
2022-12-26T09:08:38.060Z,13.80
2022-12-26T09:11:10.738Z,12.93
2022-12-26T09:13:39.248Z,13.43
2022-12-26T09:16:10.559Z,13.60
2022-12-26T09:18:38.260Z,13.70
2022-12-26T09:21:07.048Z,12.80
2022-12-26T09:23:35.252Z,13.10
2022-12-26T09:26:20.424Z,13.83
2022-12-26T09:28:47.648Z,13.80
2022-12-26T09:31:17.238Z,13.67
2022-12-26T09:33:44.754Z,13.70
2022-12-26T09:36:17.441Z,12.43
2022-12-26T09:38:46.155Z,12.93
2022-12-26T09:41:37.209Z,12.20
2022-12-26T09:44:16.009Z,13.30
2022-12-26T09:46:52.783Z,12.33
2022-12-26T09:49:26.409Z,12.97
2022-12-26T09:51:58.343Z,12.00
2022-12-26T09:54:33.166Z,13.10
2022-12-26T09:57:04.632Z,12.20
2022-12-26T09:59:48.775Z,12.70
2022-12-26T10:02:23.590Z,12.50
2022-12-26T10:04:51.534Z,12.33
2022-12-26T10:07:54.066Z,12.13
2022-12-26T10:10:54.664Z,11.60
2022-12-26T10:13:40.903Z,11.83
2022-12-26T10:16:21.643Z,12.17
2022-12-26T10:19:08.823Z,12.13
2022-12-26T10:21:59.982Z,11.83
2022-12-26T10:24:30.831Z,12.00
2022-12-26T10:27:13.914Z,11.63
2022-12-26T10:29:46.359Z,11.90
2022-12-26T10:32:30.985Z,12.50
2022-12-26T10:34:59.532Z,12.17
2022-12-26T10:37:32.806Z,12.40
2022-12-26T10:40:14.259Z,12.23
2022-12-26T10:42:46.691Z,12.53
2022-12-26T10:45:16.527Z,12.03
2022-12-26T10:47:49.767Z,12.10
2022-12-26T10:50:27.383Z,11.70
2022-12-26T10:52:55.976Z,12.17
2022-12-26T10:55:34.786Z,12.30
2022-12-26T10:58:41.071Z,12.70
2022-12-26T11:01:32.508Z,12.80
2022-12-26T11:04:02.022Z,12.67
2022-12-26T11:06:33.723Z,12.43
2022-12-26T11:09:01.044Z,12.60
2022-12-26T11:11:45.999Z,12.17
2022-12-26T11:14:37.885Z,11.77
2022-12-26T11:17:09.710Z,11.53
2022-12-26T11:19:42.344Z,12.20
2022-12-26T11:22:31.523Z,11.63
2022-12-26T11:25:12.536Z,11.33
2022-12-26T11:27:42.596Z,11.87
2022-12-26T11:30:19.519Z,12.00
2022-12-26T11:32:49.544Z,11.87
2022-12-26T11:35:24.306Z,12.13
2022-12-26T11:37:54.199Z,12.33
2022-12-26T11:40:37.167Z,12.37
2022-12-26T11:43:13.199Z,12.30
2022-12-26T11:45:44.826Z,11.93
2022-12-26T11:48:24.339Z,12.33
2022-12-26T11:50:52.103Z,11.80
2022-12-26T11:53:21.799Z,11.87
2022-12-26T11:56:01.252Z,11.50
2022-12-26T11:58:32.530Z,12.00
2022-12-26T12:00:59.535Z,12.00
2022-12-26T12:03:26.299Z,11.90
2022-12-26T12:06:02.634Z,12.07
2022-12-26T12:08:40.448Z,11.80
2022-12-26T12:11:19.274Z,11.70
2022-12-26T12:14:01.437Z,11.70
2022-12-26T12:16:58.194Z,11.90
2022-12-26T12:20:00.665Z,11.30
2022-12-26T12:22:34.146Z,11.47
2022-12-26T12:25:22.209Z,11.70
2022-12-26T12:28:02.819Z,11.80
2022-12-26T12:30:35.455Z,12.20
2022-12-26T12:33:22.781Z,12.10
2022-12-26T12:35:58.131Z,12.30
2022-12-26T12:38:30.502Z,11.60
2022-12-26T12:41:21.918Z,11.63
2022-12-26T12:44:03.039Z,12.10
2022-12-26T12:46:35.359Z,12.70
2022-12-26T12:49:24.670Z,12.30
2022-12-26T12:52:06.215Z,12.43
2022-12-26T12:54:54.663Z,12.43
2022-12-26T12:57:43.194Z,12.50
2022-12-26T13:00:18.298Z,12.47
2022-12-26T13:03:02.743Z,12.40
2022-12-26T13:05:38.355Z,12.07
2022-12-26T13:08:27.835Z,12.10
2022-12-26T13:11:00.231Z,12.43
2022-12-26T13:13:37.152Z,12.73
2022-12-26T13:16:17.338Z,12.50
2022-12-26T13:19:01.744Z,12.83
2022-12-26T13:21:32.028Z,13.53
2022-12-26T13:24:24.098Z,12.37
2022-12-26T13:27:11.571Z,12.60
2022-12-26T13:29:41.379Z,12.20
2022-12-26T13:32:40.734Z,12.70
2022-12-26T13:35:48.044Z,12.63
2022-12-26T13:38:15.211Z,12.60
2022-12-26T13:41:20.865Z,12.50
2022-12-26T13:44:20.224Z,12.03
2022-12-26T13:46:47.106Z,12.80
2022-12-26T13:49:36.986Z,12.40
2022-12-26T13:52:14.870Z,12.77
2022-12-26T13:54:51.607Z,12.73
2022-12-26T13:57:29.822Z,12.43
2022-12-26T14:00:08.279Z,12.53
2022-12-26T14:03:21.718Z,12.47
2022-12-26T14:06:03.668Z,12.83
2022-12-26T14:09:07.415Z,13.47
2022-12-26T14:11:49.710Z,12.90
2022-12-26T14:15:04.716Z,13.53
2022-12-26T14:18:15.047Z,12.50
2022-12-26T14:20:47.420Z,12.77
2022-12-26T14:23:28.489Z,12.60
2022-12-26T14:26:16.810Z,12.40
2022-12-26T14:28:52.558Z,12.27
2022-12-26T14:31:45.509Z,12.10
2022-12-26T14:34:27.274Z,12.10
2022-12-26T14:37:04.608Z,11.73
2022-12-26T14:39:55.418Z,12.40
2022-12-26T14:42:43.557Z,11.87
2022-12-26T14:45:40.424Z,12.23
2022-12-26T14:48:16.462Z,11.70
2022-12-26T14:50:55.410Z,12.63
2022-12-26T14:53:27.340Z,11.90
2022-12-26T14:55:57.434Z,11.93
2022-12-26T14:58:26.409Z,12.00
2022-12-26T15:00:54.195Z,11.77
2022-12-26T15:03:37.455Z,11.47
2022-12-26T15:06:19.774Z,11.33
2022-12-26T15:09:12.479Z,11.53
2022-12-26T15:12:16.729Z,11.50
2022-12-26T15:14:57.588Z,11.23
2022-12-26T15:17:53.354Z,11.20
2022-12-26T15:20:57.283Z,11.53
2022-12-26T15:24:01.374Z,11.20
2022-12-26T15:26:49.605Z,11.87
2022-12-26T15:29:36.181Z,11.40
2022-12-26T15:32:17.196Z,11.30
2022-12-26T15:35:10.654Z,11.37
2022-12-26T15:37:44.480Z,11.60
2022-12-26T15:40:21.152Z,11.30
2022-12-26T15:43:28.311Z,10.83
2022-12-26T15:46:15.404Z,11.00
2022-12-26T15:49:02.746Z,10.83
2022-12-26T15:51:57.641Z,11.40
2022-12-26T15:54:42.747Z,11.03
2022-12-26T15:57:19.579Z,11.33
2022-12-26T16:00:00.869Z,11.50
2022-12-26T16:02:27.894Z,11.87
2022-12-26T16:05:21.765Z,11.87
2022-12-26T16:07:58.727Z,11.90
2022-12-26T16:10:25.519Z,11.70
2022-12-26T16:13:13.438Z,12.27
2022-12-26T16:15:49.918Z,11.63
2022-12-26T16:18:23.360Z,12.00
2022-12-26T16:21:10.885Z,13.57
2022-12-26T16:23:42.008Z,12.07
2022-12-26T16:26:17.853Z,11.70
2022-12-26T16:28:45.266Z,12.23
2022-12-26T16:31:21.839Z,11.50
2022-12-26T16:33:51.735Z,12.17
2022-12-26T16:36:25.304Z,11.20
2022-12-26T16:38:53.138Z,11.13
2022-12-26T16:41:23.938Z,11.90
2022-12-26T16:43:52.178Z,11.07
2022-12-26T16:46:20.867Z,10.37
2022-12-26T16:48:54.500Z,10.70
2022-12-26T16:51:51.621Z,11.00
2022-12-26T16:54:21.310Z,10.70
2022-12-26T16:56:52.260Z,10.80
2022-12-26T16:59:22.518Z,10.87
2022-12-26T17:02:00.483Z,11.00
2022-12-26T17:04:30.146Z,11.13
2022-12-26T17:07:01.531Z,10.67
2022-12-26T17:09:31.983Z,10.60
2022-12-26T17:12:07.890Z,11.50
2022-12-26T17:14:37.770Z,10.83
2022-12-26T17:17:08.188Z,9.97
2022-12-26T17:19:37.298Z,10.90
2022-12-26T17:22:29.877Z,10.97
2022-12-26T17:25:24.535Z,10.87
2022-12-26T17:28:12.472Z,11.37
2022-12-26T17:30:50.209Z,10.93
2022-12-26T17:33:28.532Z,10.90
2022-12-26T17:38:45.646Z,11.30
2022-12-26T17:41:17.360Z,11.10
2022-12-26T17:43:45.505Z,11.53
2022-12-26T17:46:16.120Z,10.90
2022-12-26T17:48:43.692Z,11.47
2022-12-26T17:51:16.575Z,12.10
2022-12-26T17:53:50.061Z,11.37
2022-12-26T17:56:21.244Z,11.33
2022-12-26T17:58:49.116Z,10.87
2022-12-26T18:01:20.955Z,11.00
2022-12-26T18:03:48.727Z,10.40
2022-12-26T18:06:19.875Z,11.10
2022-12-26T18:08:46.766Z,10.80
2022-12-26T18:11:14.867Z,10.43
2022-12-26T18:13:42.347Z,10.33
2022-12-26T18:16:15.342Z,11.13
2022-12-26T18:18:44.649Z,10.80
2022-12-26T18:21:15.089Z,11.03
2022-12-26T18:23:42.091Z,10.60
2022-12-26T18:26:18.704Z,10.37
2022-12-26T18:28:46.321Z,10.47
2022-12-26T18:31:16.000Z,10.80
2022-12-26T18:33:42.929Z,10.60
2022-12-26T18:36:13.876Z,10.50
2022-12-26T18:38:41.303Z,10.73
2022-12-26T18:41:13.657Z,10.73
2022-12-26T18:43:40.478Z,10.80
2022-12-26T18:46:19.517Z,10.50
2022-12-26T18:48:47.189Z,10.60
2022-12-26T18:51:14.026Z,10.30
2022-12-26T18:53:41.062Z,11.13
2022-12-26T18:56:11.614Z,10.90
2022-12-26T18:58:38.527Z,10.77
2022-12-26T19:01:06.205Z,10.30
2022-12-26T19:03:35.779Z,10.80
2022-12-26T19:06:02.596Z,10.57
2022-12-26T19:08:29.603Z,10.60
2022-12-26T19:10:56.479Z,11.83
2022-12-26T19:13:23.648Z,11.23
2022-12-26T19:15:50.457Z,11.23
2022-12-26T19:18:17.377Z,11.37
2022-12-26T19:20:44.670Z,11.60
2022-12-26T19:23:12.387Z,11.43
2022-12-26T19:25:39.393Z,10.83
2022-12-26T19:28:06.795Z,11.90
2022-12-26T19:30:38.458Z,11.20
2022-12-26T19:33:06.744Z,10.97
2022-12-26T19:35:33.981Z,10.90
2022-12-26T19:38:00.955Z,10.90
2022-12-26T19:40:27.921Z,11.10
2022-12-26T19:42:54.825Z,10.87
2022-12-26T19:45:21.752Z,10.90
2022-12-26T19:47:48.850Z,10.77
2022-12-26T19:50:15.835Z,11.33
2022-12-26T19:52:42.713Z,10.70
2022-12-26T19:55:11.331Z,10.80
2022-12-26T19:57:38.225Z,10.67
2022-12-26T20:00:06.082Z,10.50
2022-12-26T20:02:40.066Z,10.30
2022-12-26T20:05:08.516Z,10.47
2022-12-26T20:07:35.823Z,10.40
2022-12-26T20:10:02.685Z,11.63
2022-12-26T20:12:29.486Z,10.10
2022-12-26T20:14:56.443Z,10.70
2022-12-26T20:17:23.372Z,10.70
2022-12-26T20:19:52.158Z,11.17
2022-12-26T20:22:19.003Z,10.00
2022-12-26T20:24:47.188Z,10.40
2022-12-26T20:27:14.531Z,10.00
2022-12-26T20:29:41.703Z,10.03
2022-12-26T20:32:08.631Z,10.50
2022-12-26T20:34:35.648Z,10.00
2022-12-26T20:37:02.681Z,10.57
2022-12-26T20:39:29.591Z,10.50
2022-12-26T20:41:56.387Z,10.77
2022-12-26T20:44:24.533Z,10.80
2022-12-26T20:46:51.558Z,10.80
2022-12-26T20:49:18.526Z,10.30
2022-12-26T20:51:45.795Z,11.00
2022-12-26T20:54:14.968Z,11.27
2022-12-26T20:56:42.842Z,11.40
2022-12-26T20:59:09.755Z,10.63
2022-12-26T21:01:38.122Z,10.47
2022-12-26T21:04:05.484Z,10.60
2022-12-26T21:06:35.510Z,10.60
2022-12-26T21:09:03.292Z,10.80
2022-12-26T21:11:33.970Z,10.90
2022-12-26T21:14:06.946Z,10.20
2022-12-26T21:16:39.637Z,10.67
2022-12-26T21:19:12.588Z,10.80
2022-12-26T21:21:44.203Z,10.63
2022-12-26T21:24:14.818Z,10.10
2022-12-26T21:26:42.774Z,10.37
2022-12-26T21:29:17.360Z,10.80
2022-12-26T21:31:44.898Z,10.87
2022-12-26T21:34:15.011Z,10.80
2022-12-26T21:37:03.048Z,10.70
2022-12-26T21:39:30.892Z,10.93
2022-12-26T21:41:57.702Z,11.20
2022-12-26T21:44:24.559Z,11.00
2022-12-26T21:46:51.405Z,10.60
2022-12-26T21:49:18.456Z,11.60
2022-12-26T21:51:45.226Z,11.03
2022-12-26T21:54:30.539Z,11.03
2022-12-26T21:56:57.467Z,10.83
2022-12-26T21:59:56.544Z,10.43
2022-12-26T22:02:50.803Z,10.87
2022-12-26T22:05:19.493Z,11.47
2022-12-26T22:07:47.041Z,11.00
2022-12-26T22:10:34.685Z,11.03
2022-12-26T22:13:02.613Z,11.17
2022-12-26T22:15:47.987Z,11.40
2022-12-26T22:18:15.078Z,12.20
2022-12-26T22:20:44.588Z,11.33
2022-12-26T22:23:13.286Z,11.10
2022-12-26T22:25:40.175Z,11.23
2022-12-26T22:28:07.181Z,10.87
2022-12-26T22:30:35.400Z,11.10
2022-12-26T22:33:02.239Z,11.40
2022-12-26T22:35:29.191Z,11.07
2022-12-26T22:37:56.135Z,11.67
2022-12-26T22:40:23.071Z,11.57
2022-12-26T22:42:49.866Z,10.87
2022-12-26T22:45:16.866Z,11.50
2022-12-26T22:47:43.857Z,11.67
2022-12-26T22:50:16.033Z,11.77
2022-12-26T22:52:43.413Z,11.50
2022-12-26T22:55:11.141Z,11.90
2022-12-26T22:57:38.040Z,11.60
2022-12-26T23:00:09.818Z,11.93
2022-12-26T23:02:37.303Z,11.93
2022-12-26T23:05:05.010Z,11.57
2022-12-26T23:07:32.464Z,11.53
2022-12-26T23:10:00.430Z,12.00
2022-12-26T23:12:46.108Z,11.73
2022-12-26T23:15:15.039Z,11.73
2022-12-26T23:18:05.995Z,11.47
2022-12-26T23:20:54.303Z,12.03
2022-12-26T23:23:22.392Z,11.73
2022-12-26T23:25:49.690Z,11.83
2022-12-26T23:28:35.731Z,12.03
2022-12-26T23:31:05.812Z,12.23
2022-12-26T23:33:32.867Z,12.17
2022-12-26T23:35:59.989Z,12.43
2022-12-26T23:38:26.850Z,12.13
2022-12-26T23:40:53.843Z,11.80
2022-12-26T23:43:20.729Z,12.40
2022-12-26T23:45:47.635Z,12.30
2022-12-26T23:48:14.479Z,12.77
2022-12-26T23:50:41.238Z,12.43
2022-12-26T23:53:08.165Z,12.13
2022-12-26T23:55:34.988Z,12.20
2022-12-26T23:58:01.957Z,12.57
